Time;durP1;ratioP1;P1;durP2;ratioP2;P2;SDS_P1;SDS_P2;PMS_P1;PMS_P2;Temp;Humidity;BMP_temperature;BMP_pressure;BME280_temperature;BME280_humidity;BME280_pressure;Samples;Min_cycle;Max_cycle;Signal;HPM_P1;HPM_P2
2023/06/26 00:01:32;;;;;;;6.57;5.30;;;;;;;-145.18;100.00;46496.31;5073443;28;20156;-61
2023/06/26 00:04:01;;;;;;;7.33;5.00;;;;;;;-145.18;100.00;46504.13;5071273;28;20036;-61
2023/06/26 00:06:26;;;;;;;8.30;5.63;;;;;;;-145.18;100.00;46506.09;5070764;28;20021;-61
2023/06/26 00:08:53;;;;;;;9.13;6.03;;;;;;;-145.18;100.00;46496.31;5054065;28;20544;-61
2023/06/26 00:11:20;;;;;;;7.40;5.60;;;;;;;-145.18;100.00;46496.31;5071502;28;20021;-61
2023/06/26 00:13:45;;;;;;;10.27;6.13;;;;;;;-145.18;100.00;46504.13;5072205;28;20021;-61
2023/06/26 00:16:10;;;;;;;6.80;5.30;;;;;;;-145.18;100.00;46500.22;5034161;28;20115;-61
2023/06/26 00:18:36;;;;;;;7.07;5.10;;;;;;;-145.18;100.00;46500.22;5072731;28;20029;-61
2023/06/26 00:21:01;;;;;;;12.30;5.40;;;;;;;-145.18;100.00;46506.09;5071159;28;20024;-61
2023/06/26 00:23:30;;;;;;;9.50;5.83;;;;;;;-145.18;100.00;46498.28;5054873;28;20583;-61
2023/06/26 00:25:56;;;;;;;7.33;4.70;;;;;;;-145.18;100.00;46498.28;5072985;28;20510;-61
2023/06/26 00:28:22;;;;;;;7.20;4.63;;;;;;;-145.18;100.00;46500.22;5071974;28;20033;-61
2023/06/26 00:30:47;;;;;;;9.27;4.93;;;;;;;-145.18;100.00;46511.94;5071815;28;20115;-61
2023/06/26 00:33:13;;;;;;;8.20;5.43;;;;;;;-145.18;100.00;46506.09;5072749;28;20487;-61
2023/06/26 00:35:38;;;;;;;6.10;4.30;;;;;;;-145.18;100.00;46506.09;5071360;28;20036;-61
2023/06/26 00:38:03;;;;;;;6.00;4.67;;;;;;;-145.18;100.00;46519.75;5073746;28;20043;-61
2023/06/26 00:40:29;;;;;;;6.87;4.77;;;;;;;-145.18;100.00;46517.81;5073022;28;20500;-61
2023/06/26 00:42:54;;;;;;;6.43;4.47;;;;;;;-145.18;100.00;46525.63;5071561;28;20037;-61
2023/06/26 00:45:19;;;;;;;8.53;4.90;;;;;;;-145.18;100.00;46523.66;5071934;28;20104;-61
2023/06/26 00:47:45;;;;;;;7.67;5.03;;;;;;;-145.18;100.00;46523.66;5073461;28;20029;-61
2023/06/26 00:50:11;;;;;;;6.07;4.17;;;;;;;-145.18;100.00;46521.72;5074669;28;20036;-61
2023/06/26 00:52:37;;;;;;;9.57;4.57;;;;;;;-145.18;100.00;46527.56;5072349;28;20055;-61
2023/06/26 00:55:03;;;;;;;6.47;4.40;;;;;;;-145.18;100.00;46527.56;5053803;28;20103;-61
2023/06/26 00:57:30;;;;;;;7.67;4.70;;;;;;;-145.18;100.00;46543.19;5072503;28;20024;-61
2023/06/26 00:59:56;;;;;;;8.47;5.07;;;;;;;-145.18;100.00;46609.59;5070635;28;20393;-61
2023/06/26 01:02:21;;;;;;;6.97;4.57;;;;;;;-145.18;100.00;46654.53;5052717;28;20025;-61
2023/06/26 01:04:52;;;;;;;6.73;4.93;;;;;;;-145.18;100.00;46644.78;5070147;28;20748;-61
2023/06/26 01:07:19;;;;;;;11.17;4.63;;;;;;;-145.18;100.00;46654.53;5073227;28;20029;-61
2023/06/26 01:09:47;;;;;;;6.03;4.33;;;;;;;-145.18;100.00;46656.50;5074432;28;20515;-61
2023/06/26 01:12:13;;;;;;;7.43;4.93;;;;;;;-145.18;100.00;46664.31;5074654;28;20573;-61
2023/06/26 01:14:38;;;;;;;7.77;4.77;;;;;;;-145.18;100.00;46658.44;5074741;28;20032;-61
2023/06/26 01:17:04;;;;;;;7.27;4.67;;;;;;;-145.18;100.00;46666.25;5054636;28;20024;-61
2023/06/26 01:19:33;;;;;;;8.50;4.37;;;;;;;-145.18;100.00;46660.41;5058596;28;20146;-61
2023/06/26 01:22:18;;;;;;;10.17;4.40;;;;;;;-145.18;100.00;46656.50;5073515;28;20491;-61
2023/06/26 01:25:29;;;;;;;6.72;3.80;;;;;;;-145.18;100.00;46662.34;5073108;28;20082;-61
2023/06/26 01:27:56;;;;;;;8.47;3.40;;;;;;;-145.18;100.00;46664.31;5074299;28;20039;-61
2023/06/26 01:30:22;;;;;;;7.03;3.47;;;;;;;-145.18;100.00;46660.41;5073257;28;20045;-61
2023/06/26 01:32:48;;;;;;;11.83;3.77;;;;;;;-145.18;100.00;46650.63;5073800;28;20412;-61
2023/06/26 01:35:15;;;;;;;10.07;3.60;;;;;;;-145.18;100.00;46668.22;5073788;28;20029;-61
2023/06/26 01:37:41;;;;;;;6.03;2.83;;;;;;;-145.18;100.00;46660.41;5073653;28;20032;-61
2023/06/26 01:40:07;;;;;;;10.70;3.27;;;;;;;-145.18;100.00;46658.44;5073806;28;20040;-61
2023/06/26 01:42:35;;;;;;;6.63;3.03;;;;;;;-145.18;100.00;46656.50;5055931;28;20166;-61
2023/06/26 01:45:13;;;;;;;9.87;3.63;;;;;;;-145.18;100.00;46652.59;5073245;28;20132;-61
2023/06/26 01:47:43;;;;;;;9.23;3.60;;;;;;;-145.18;100.00;46652.59;5073591;28;20028;-61
2023/06/26 01:50:16;;;;;;;7.17;3.10;;;;;;;-145.18;100.00;46656.50;5074057;28;20389;-61
2023/06/26 01:52:49;;;;;;;11.97;4.23;;;;;;;-145.18;100.00;46654.53;5072805;28;20029;-61
2023/06/26 01:55:20;;;;;;;8.63;3.47;;;;;;;-145.18;100.00;46660.41;5074005;28;20020;-61
2023/06/26 01:57:47;;;;;;;6.57;2.67;;;;;;;-145.18;100.00;46658.44;5073190;28;20032;-61
2023/06/26 02:00:17;;;;;;;9.60;3.13;;;;;;;-145.18;100.00;46660.41;5074729;28;20051;-61
2023/06/26 02:02:43;;;;;;;9.13;3.67;;;;;;;-145.18;100.00;46656.50;5072952;28;20547;-61
2023/06/26 02:05:09;;;;;;;10.20;3.80;;;;;;;-145.18;100.00;46652.59;5073528;28;20126;-61
2023/06/26 02:07:34;;;;;;;10.60;3.33;;;;;;;-145.18;100.00;46656.50;5072618;28;20392;-61
2023/06/26 02:09:59;;;;;;;8.03;3.20;;;;;;;-145.18;100.00;46648.69;5055346;28;20058;-61
2023/06/26 02:12:25;;;;;;;7.47;3.10;;;;;;;-145.18;100.00;46648.69;5073765;28;20361;-61
2023/06/26 02:14:51;;;;;;;6.97;3.40;;;;;;;-145.18;100.00;46648.69;5074152;28;20020;-61
2023/06/26 02:17:16;;;;;;;7.97;3.70;;;;;;;-145.18;100.00;46652.59;5075038;28;20024;-61
2023/06/26 02:19:47;;;;;;;7.07;3.70;;;;;;;-145.18;100.00;46685.78;5072328;28;20029;-59
2023/06/26 02:22:13;;;;;;;7.43;3.30;;;;;;;-145.18;100.00;46679.94;5054891;28;20048;-58
2023/06/26 02:24:39;;;;;;;10.03;3.27;;;;;;;-145.18;100.00;46646.72;5071688;28;20029;-58
2023/06/26 02:27:04;;;;;;;8.23;3.33;;;;;;;-145.18;100.00;46646.72;5059162;28;20388;-58
2023/06/26 02:29:29;;;;;;;11.43;3.50;;;;;;;-145.18;100.00;46646.72;5074152;28;20051;-58
2023/06/26 02:31:55;;;;;;;9.93;3.87;;;;;;;-145.18;100.00;46677.97;5072305;28;20036;-58
2023/06/26 02:34:20;;;;;;;10.50;3.73;;;;;;;-145.18;100.00;46660.41;5074436;28;20482;-58
2023/06/26 02:36:45;;;;;;;10.30;4.00;;;;;;;-145.18;100.00;46660.41;5071891;28;20055;-59
2023/06/26 02:39:11;;;;;;;16.87;4.33;;;;;;;-145.18;100.00;46660.41;5072661;28;20024;-58
2023/06/26 02:41:36;;;;;;;9.53;3.77;;;;;;;-145.18;100.00;46660.41;5054078;28;20086;-58
2023/06/26 02:44:02;;;;;;;16.63;4.03;;;;;;;-145.18;100.00;46660.41;5072593;28;20036;-59
2023/06/26 02:46:27;;;;;;;18.57;4.63;;;;;;;-145.18;100.00;46660.41;5071575;28;20028;-58
2023/06/26 02:48:52;;;;;;;11.93;4.20;;;;;;;-145.18;100.00;46660.41;5072053;28;20411;-58
2023/06/26 02:51:18;;;;;;;11.40;3.87;;;;;;;-145.18;100.00;46660.41;5072283;28;20031;-58
2023/06/26 02:53:43;;;;;;;16.67;4.37;;;;;;;-145.18;100.00;46660.41;5072542;28;20060;-59
2023/06/26 02:56:08;;;;;;;13.73;4.33;;;;;;;-145.18;100.00;46660.41;5072778;28;20120;-59
2023/06/26 02:58:34;;;;;;;13.13;4.00;;;;;;;-145.18;100.00;46660.41;5072235;28;20480;-58
2023/06/26 03:00:59;;;;;;;12.43;3.87;;;;;;;-145.18;100.00;46660.41;5072597;28;20388;-58
2023/06/26 03:03:25;;;;;;;13.40;4.43;;;;;;;-145.18;100.00;46660.41;5073484;28;20036;-58
2023/06/26 03:05:50;;;;;;;16.67;5.20;;;;;;;-145.18;100.00;46660.41;5055376;28;20028;-59
2023/06/26 03:08:16;;;;;;;16.47;4.60;;;;;;;-145.18;100.00;46660.41;5071924;28;20032;-59
2023/06/26 03:10:41;;;;;;;15.27;4.67;;;;;;;-145.18;100.00;46660.41;5073853;28;20082;-58
2023/06/26 03:13:07;;;;;;;11.80;4.57;;;;;;;-145.18;100.00;46660.41;5073677;28;20451;-59
2023/06/26 03:15:32;;;;;;;16.27;4.10;;;;;;;-145.18;100.00;46660.41;5073967;28;20108;-59
2023/06/26 03:17:57;;;;;;;14.00;4.43;;;;;;;-145.18;100.00;46660.41;5072670;28;20078;-58
2023/06/26 03:20:23;;;;;;;11.80;4.23;;;;;;;-145.18;100.00;46660.41;5073373;28;20052;-58
2023/06/26 03:22:48;;;;;;;17.63;4.37;;;;;;;-145.18;100.00;46660.41;5053422;28;20487;-58
2023/06/26 03:25:14;;;;;;;12.80;3.80;;;;;;;-145.18;100.00;46660.41;5073507;28;20036;-59
2023/06/26 03:27:39;;;;;;;13.13;4.30;;;;;;;-145.18;100.00;46660.41;5072216;28;20137;-59
2023/06/26 03:30:05;;;;;;;19.07;4.47;;;;;;;-145.18;100.00;46660.41;5075021;28;20132;-58
2023/06/26 03:32:30;;;;;;;17.30;4.33;;;;;;;-145.18;100.00;46660.41;5070696;28;20028;-58
2023/06/26 03:34:56;;;;;;;18.47;4.00;;;;;;;-145.18;100.00;46660.41;5073259;28;20027;-58
2023/06/26 03:37:21;;;;;;;14.47;3.67;;;;;;;-145.18;100.00;46660.41;5055555;28;20062;-59
2023/06/26 03:39:47;;;;;;;11.43;4.20;;;;;;;-145.18;100.00;46660.41;5070126;28;20391;-58
2023/06/26 03:42:12;;;;;;;15.37;4.37;;;;;;;-145.18;100.00;46660.41;5072348;28;20024;-58
2023/06/26 03:44:38;;;;;;;16.50;4.40;;;;;;;-145.18;100.00;46660.41;5054262;28;20032;-59
2023/06/26 03:47:03;;;;;;;15.63;4.10;;;;;;;-145.18;100.00;46660.41;5066444;28;20420;-59
2023/06/26 03:49:28;;;;;;;15.13;4.20;;;;;;;-145.18;100.00;46660.41;5068509;28;20028;-58
2023/06/26 03:51:54;;;;;;;16.40;4.27;;;;;;;-145.18;100.00;46658.44;5070839;28;20039;-59
2023/06/26 03:54:19;;;;;;;10.60;3.87;;;;;;;-145.18;100.00;46660.41;5069687;28;20065;-59
2023/06/26 03:56:45;;;;;;;14.80;4.03;;;;;;;-145.18;100.00;46660.41;5053321;28;20040;-59
2023/06/26 03:59:11;;;;;;;11.50;3.77;;;;;;;-145.18;100.00;46660.41;5070593;28;20137;-59
2023/06/26 04:01:37;;;;;;;13.87;4.20;;;;;;;-145.18;100.00;46660.41;5070393;28;20055;-58
2023/06/26 04:04:03;;;;;;;12.33;3.77;;;;;;;-145.18;100.00;46660.41;5072932;28;20403;-58
2023/06/26 04:06:31;;;;;;;16.70;3.80;;;;;;;-145.18;100.00;46660.41;5072426;28;20028;-59
2023/06/26 04:08:57;;;;;;;14.27;4.23;;;;;;;-145.18;100.00;46660.41;5070050;28;20090;-59
2023/06/26 04:11:22;;;;;;;16.40;4.70;;;;;;;-145.18;100.00;46656.50;5076356;28;20033;-57
2023/06/26 04:13:47;;;;;;;14.20;4.60;;;;;;;-145.18;100.00;46660.41;5075143;28;20448;-58
2023/06/26 04:16:13;;;;;;;17.90;4.37;;;;;;;-145.18;100.00;46660.41;5057133;28;20028;-58
2023/06/26 04:18:38;;;;;;;15.60;3.63;;;;;;;-145.18;100.00;46660.41;5072289;28;20035;-58
2023/06/26 04:21:11;;;;;;;12.43;3.97;;;;;;;-145.18;100.00;46660.41;5073407;28;20484;-58
2023/06/26 04:23:38;;;;;;;14.07;5.00;;;;;;;-145.18;100.00;46660.41;5070178;28;20074;-58
2023/06/26 04:26:04;;;;;;;15.80;4.50;;;;;;;-145.18;100.00;46660.41;5053329;28;20112;-58
2023/06/26 04:28:31;;;;;;;11.93;4.23;;;;;;;-145.18;100.00;46660.41;5078276;28;20020;-58
2023/06/26 04:30:57;;;;;;;17.03;4.40;;;;;;;-145.18;100.00;46660.41;5071022;28;20094;-58
2023/06/26 04:33:23;;;;;;;16.37;4.10;;;;;;;-145.18;100.00;46660.41;5072690;28;20446;-58
2023/06/26 04:35:48;;;;;;;13.83;3.57;;;;;;;-145.18;100.00;46660.41;5075656;28;20025;-58
2023/06/26 04:38:15;;;;;;;14.10;4.20;;;;;;;-145.18;100.00;46660.41;5070365;28;20116;-58
2023/06/26 04:40:40;;;;;;;14.13;4.17;;;;;;;-145.18;100.00;46660.41;5072223;28;20059;-58
2023/06/26 04:43:06;;;;;;;11.27;3.93;;;;;;;-145.18;100.00;46660.41;5054898;28;20480;-58
2023/06/26 04:45:31;;;;;;;9.73;3.57;;;;;;;-145.18;100.00;46660.41;5077336;28;20036;-58
2023/06/26 04:47:57;;;;;;;11.97;3.83;;;;;;;-145.18;100.00;46660.41;5074619;28;20550;-58
2023/06/26 04:50:23;;;;;;;16.00;4.03;;;;;;;-145.18;100.00;46660.41;5091258;28;20029;-58
2023/06/26 04:52:48;;;;;;;15.07;4.13;;;;;;;-145.18;100.00;46660.41;5089114;28;20035;-58
2023/06/26 04:55:14;;;;;;;9.97;3.37;;;;;;;-145.18;100.00;46660.41;5075455;28;20032;-58
2023/06/26 04:57:39;;;;;;;15.43;4.50;;;;;;;-145.18;100.00;46660.41;5079530;28;20454;-58
2023/06/26 05:00:09;;;;;;;10.13;3.90;;;;;;;-145.18;100.00;46660.41;5083879;28;20033;-58
2023/06/26 05:02:35;;;;;;;15.60;3.77;;;;;;;-145.18;100.00;46660.41;5074489;28;20032;-59
2023/06/26 05:05:01;;;;;;;11.73;3.20;;;;;;;-145.18;100.00;46660.41;5075382;28;20080;-58
2023/06/26 05:07:26;;;;;;;13.70;4.23;;;;;;;-145.18;100.00;46660.41;5075191;28;20104;-58
2023/06/26 05:09:51;;;;;;;9.47;3.60;;;;;;;-145.18;100.00;46660.41;5086806;28;20535;-58
2023/06/26 05:12:17;;;;;;;11.70;3.43;;;;;;;-145.18;100.00;46660.41;5075631;28;20028;-58
2023/06/26 05:14:42;;;;;;;11.07;3.73;;;;;;;-145.18;100.00;46660.41;5074689;28;20024;-58
2023/06/26 05:17:08;;;;;;;11.10;3.20;;;;;;;-145.18;100.00;46660.41;5076240;28;20024;-58
2023/06/26 05:19:33;;;;;;;12.87;3.37;;;;;;;-145.18;100.00;46660.41;5074764;28;20119;-58
2023/06/26 05:22:01;;;;;;;10.53;3.07;;;;;;;-145.18;100.00;46677.97;5075965;28;20043;-58
2023/06/26 05:24:27;;;;;;;5.93;2.80;;;;;;;-145.18;100.00;46640.88;5082038;28;20034;-58
2023/06/26 05:26:53;;;;;;;9.03;3.27;;;;;;;-145.18;100.00;46642.81;5080406;28;20032;-58
2023/06/26 05:29:18;;;;;;;9.70;3.10;;;;;;;-145.18;100.00;46677.97;5082682;28;20036;-58
2023/06/26 05:31:45;;;;;;;11.77;3.50;;;;;;;-145.18;100.00;46640.88;5075544;28;20032;-58
2023/06/26 05:34:12;;;;;;;8.10;3.03;;;;;;;-145.18;100.00;46644.78;5079019;28;20039;-58
2023/06/26 05:36:38;;;;;;;11.53;3.40;;;;;;;-145.18;100.00;46640.88;5041384;28;20074;-58
2023/06/26 05:39:04;;;;;;;9.30;2.80;;;;;;;-145.18;100.00;46642.81;5076837;28;20097;-58
2023/06/26 05:41:30;;;;;;;10.87;2.90;;;;;;;-145.18;100.00;46642.81;5082517;28;20116;-58
2023/06/26 05:43:55;;;;;;;10.13;2.93;;;;;;;-145.18;100.00;46652.59;5082033;28;20036;-58
2023/06/26 05:46:21;;;;;;;6.70;2.77;;;;;;;-145.18;100.00;46652.59;5075732;28;20188;-58
2023/06/26 05:48:47;;;;;;;7.33;2.73;;;;;;;-145.18;100.00;46650.63;5076441;28;20450;-58
2023/06/26 05:51:13;;;;;;;9.53;2.67;;;;;;;-145.18;100.00;46652.59;5075379;28;20033;-58
2023/06/26 05:53:38;;;;;;;8.13;2.73;;;;;;;-145.18;100.00;46662.34;5075746;28;20035;-58
2023/06/26 05:56:04;;;;;;;6.73;2.37;;;;;;;-145.18;100.00;46664.31;5058240;28;20055;-58
2023/06/26 05:58:30;;;;;;;4.07;1.90;;;;;;;-145.18;100.00;46664.31;5057948;28;20503;-58
2023/06/26 06:00:55;;;;;;;7.03;2.30;;;;;;;-145.18;100.00;46660.41;5081533;28;20067;-58
2023/06/26 06:03:21;;;;;;;5.73;1.83;;;;;;;-145.18;100.00;46660.41;5105816;28;20498;-58
2023/06/26 06:05:46;;;;;;;6.00;2.53;;;;;;;-145.18;100.00;46660.41;5087040;28;20040;-58
2023/06/26 06:08:12;;;;;;;6.50;2.67;;;;;;;-145.18;100.00;46662.34;5097018;28;20465;-58
2023/06/26 06:10:37;;;;;;;4.43;2.67;;;;;;;-145.18;100.00;46656.50;5087081;28;20043;-58
2023/06/26 06:13:03;;;;;;;4.43;1.97;;;;;;;-145.18;100.00;46658.44;5097162;28;20154;-58
2023/06/26 06:15:28;;;;;;;4.37;2.33;;;;;;;-145.18;100.00;46658.44;5089648;28;20040;-59
2023/06/26 06:17:54;;;;;;;4.33;2.60;;;;;;;-145.18;100.00;46652.59;5075317;28;20085;-58
2023/06/26 06:20:22;;;;;;;5.60;2.27;;;;;;;-145.18;100.00;46660.41;5073597;28;20028;-58
2023/06/26 06:22:48;;;;;;;8.50;2.77;;;;;;;-145.18;100.00;46652.59;5073845;28;20115;-58
2023/06/26 06:25:14;;;;;;;6.03;2.80;;;;;;;-145.18;100.00;46654.53;5073805;28;20028;-58
2023/06/26 06:27:39;;;;;;;4.77;2.50;;;;;;;-145.18;100.00;46652.59;5074125;28;20481;-58
2023/06/26 06:30:05;;;;;;;3.83;2.50;;;;;;;-145.18;100.00;46650.63;5055083;28;20059;-58
2023/06/26 06:32:31;;;;;;;2.63;2.00;;;;;;;-145.18;100.00;46658.44;5074006;28;20099;-58
2023/06/26 06:34:57;;;;;;;5.23;2.03;;;;;;;-145.18;100.00;46656.50;5075265;28;20033;-58
2023/06/26 06:37:22;;;;;;;3.90;2.03;;;;;;;-145.18;100.00;46654.53;5074101;28;20031;-58
2023/06/26 06:39:48;;;;;;;7.20;2.00;;;;;;;-145.18;100.00;46652.59;5079638;28;20024;-58
2023/06/26 06:42:13;;;;;;;4.83;2.00;;;;;;;-145.18;100.00;46658.44;5075011;28;20407;-56
2023/06/26 06:44:38;;;;;;;4.63;1.60;;;;;;;-145.18;100.00;46654.53;5068540;28;20036;-57
2023/06/26 06:47:04;;;;;;;4.13;1.83;;;;;;;-145.18;100.00;46646.72;5077850;28;20024;-58
2023/06/26 06:49:29;;;;;;;6.60;1.80;;;;;;;-145.18;100.00;46625.22;5072210;28;20377;-57
2023/06/26 06:51:55;;;;;;;7.17;1.93;;;;;;;-145.18;100.00;46621.31;5079516;28;20032;-58
2023/06/26 06:54:20;;;;;;;4.13;1.50;;;;;;;-145.18;100.00;46588.13;5077597;28;20078;-58
2023/06/26 06:56:45;;;;;;;5.73;1.70;;;;;;;-145.18;100.00;46560.78;5077588;28;20040;-58
2023/06/26 06:59:11;;;;;;;3.13;1.53;;;;;;;-145.18;100.00;46545.16;5077231;28;20050;-58
2023/06/26 07:01:36;;;;;;;6.13;1.90;;;;;;;-145.18;100.00;46515.84;5085818;28;20046;-58
2023/06/26 07:04:03;;;;;;;5.27;1.40;;;;;;;-145.18;100.00;46506.09;5089702;28;20126;-58
2023/06/26 07:06:29;;;;;;;3.33;1.27;;;;;;;-145.18;100.00;46517.81;5082384;28;20033;-58
2023/06/26 07:08:54;;;;;;;6.23;1.87;;;;;;;-145.18;100.00;46511.94;5088574;28;20081;-58
2023/06/26 07:11:20;;;;;;;2.90;1.40;;;;;;;-145.18;100.00;46519.75;5079491;28;20041;-58
2023/06/26 07:13:45;;;;;;;2.30;1.23;;;;;;;-145.18;100.00;46523.66;5064288;28;20042;-58
2023/06/26 07:16:11;;;;;;;3.03;1.60;;;;;;;-145.18;100.00;46517.81;5097001;28;20060;-57
2023/06/26 07:18:38;;;;;;;3.03;1.27;;;;;;;-145.18;100.00;46519.75;5052283;28;20032;-58
2023/06/26 07:21:04;;;;;;;4.67;1.60;;;;;;;-145.18;100.00;46517.81;5073303;28;20441;-58
2023/06/26 07:23:30;;;;;;;5.13;1.37;;;;;;;-145.18;100.00;46515.84;5079890;28;20073;-58
2023/06/26 07:25:55;;;;;;;6.87;1.60;;;;;;;-145.18;100.00;46515.84;5100491;28;20038;-58
2023/06/26 07:28:21;;;;;;;3.97;1.60;;;;;;;-145.18;100.00;46517.81;5072288;28;20032;-58
2023/06/26 07:30:46;;;;;;;1.77;1.30;;;;;;;-145.18;100.00;46515.84;5063242;28;20048;-58
2023/06/26 07:33:12;;;;;;;2.10;1.40;;;;;;;-145.18;100.00;46517.81;5096896;28;20034;-58
2023/06/26 07:35:37;;;;;;;3.40;1.53;;;;;;;-145.18;100.00;46511.94;5074517;28;20067;-58
2023/06/26 07:38:03;;;;;;;10.53;1.93;;;;;;;-145.18;100.00;46519.75;5086927;28;20027;-58
2023/06/26 07:40:28;;;;;;;3.73;1.50;;;;;;;-145.18;100.00;46521.72;5071876;28;20033;-58
2023/06/26 07:42:54;;;;;;;5.53;1.50;;;;;;;-145.18;100.00;46521.72;5079298;28;20028;-57
2023/06/26 07:45:19;;;;;;;4.77;1.63;;;;;;;-145.18;100.00;46508.03;5071834;28;20043;-58
2023/06/26 07:47:45;;;;;;;4.93;1.43;;;;;;;-145.18;100.00;46508.03;5073993;28;20024;-58
2023/06/26 07:50:11;;;;;;;4.70;1.60;;;;;;;-145.18;100.00;46513.91;5067376;28;20032;-58
2023/06/26 07:52:37;;;;;;;3.27;1.30;;;;;;;-145.18;100.00;46511.94;5076092;28;20043;-58
2023/06/26 07:55:03;;;;;;;5.40;1.20;;;;;;;-145.18;100.00;46535.38;5072628;28;20442;-58
2023/06/26 07:57:29;;;;;;;7.20;2.60;;;;;;;-145.18;100.00;46517.81;5073747;28;20454;-58
2023/06/26 07:59:55;;;;;;;6.47;1.30;;;;;;;-145.18;100.00;46511.94;5076181;28;20032;-58
2023/06/26 08:02:21;;;;;;;5.57;1.20;;;;;;;-145.18;100.00;46523.66;5069957;28;20100;-58
2023/06/26 08:04:46;;;;;;;7.40;1.60;;;;;;;-145.18;100.00;46515.84;5071849;28;20076;-58
2023/06/26 08:07:13;;;;;;;4.00;1.40;;;;;;;-145.18;100.00;46508.03;5064525;28;20035;-58
2023/06/26 08:09:39;;;;;;;8.20;1.70;;;;;;;-145.18;100.00;46511.94;5072169;28;20487;-58
2023/06/26 08:12:04;;;;;;;4.43;1.60;;;;;;;-145.18;100.00;46510.00;5084344;28;20044;-58
2023/06/26 08:14:31;;;;;;;6.87;2.27;;;;;;;-145.18;100.00;46523.66;5072168;28;20499;-58
2023/06/26 08:16:57;;;;;;;4.23;1.80;;;;;;;-145.18;100.00;46517.81;5076766;28;20055;-58
2023/06/26 08:19:22;;;;;;;6.40;1.43;;;;;;;-145.18;100.00;46556.88;5085433;28;20031;-59
2023/06/26 08:21:48;;;;;;;3.87;1.20;;;;;;;-145.18;100.00;46511.94;5078463;28;20039;-59
2023/06/26 08:24:16;;;;;;;5.17;1.50;;;;;;;-145.18;100.00;46525.63;5083698;28;20028;-58
2023/06/26 08:26:42;;;;;;;4.60;1.30;;;;;;;-145.18;100.00;46531.47;5089164;28;20096;-59
2023/06/26 08:29:10;;;;;;;4.23;1.57;;;;;;;-145.18;100.00;46529.53;5080462;28;20507;-58
2023/06/26 08:31:35;;;;;;;6.13;1.53;;;;;;;-145.18;100.00;46605.69;5077976;28;20043;-59
2023/06/26 08:34:05;;;;;;;4.63;1.20;;;;;;;-145.18;100.00;47072.56;5085759;28;20024;-58
2023/06/26 08:36:31;;;;;;;5.20;1.73;;;;;;;-145.18;100.00;47080.38;5090871;28;20073;-59
2023/06/26 08:38:57;;;;;;;4.07;1.50;;;;;;;-145.18;100.00;46933.88;5086195;28;20074;-58
2023/06/26 08:41:22;;;;;;;5.67;1.33;;;;;;;-145.18;100.00;46902.63;5080998;28;20028;-59
2023/06/26 08:43:50;;;;;;;9.27;1.53;;;;;;;-145.18;100.00;46670.16;5076303;28;20111;-59
2023/06/26 08:46:15;;;;;;;4.63;1.40;;;;;;;-145.18;100.00;46910.44;5088067;28;20028;-58
2023/06/26 08:48:47;;;;;;;4.33;1.60;;;;;;;-145.18;100.00;47015.91;5076130;28;20035;-59
2023/06/26 08:51:18;;;;;;;3.83;1.20;;;;;;;-145.18;100.00;47066.72;5084572;28;20031;-58
2023/06/26 08:53:52;;;;;;;5.93;1.60;;;;;;;-145.18;100.00;47119.47;5076778;28;20801;-58
2023/06/26 08:56:21;;;;;;;6.63;1.53;;;;;;;-145.18;100.00;47113.59;5074027;28;20031;-59
2023/06/26 08:58:46;;;;;;;4.27;1.40;;;;;;;-145.18;100.00;47125.31;5079162;28;20028;-58
2023/06/26 09:01:12;;;;;;;2.00;1.40;;;;;;;-145.18;100.00;47164.38;5094702;28;20032;-58
2023/06/26 09:03:38;;;;;;;3.70;1.53;;;;;;;-145.18;100.00;46812.75;5090488;28;20024;-58
2023/06/26 09:06:03;;;;;;;4.20;1.40;;;;;;;-145.18;100.00;46752.19;5077617;28;20472;-58
2023/06/26 09:08:29;;;;;;;3.67;1.70;;;;;;;-145.18;100.00;47037.41;5080804;28;20396;-58
2023/06/26 09:10:54;;;;;;;4.07;1.47;;;;;;;-145.18;100.00;47148.75;5081774;28;20036;-58
2023/06/26 09:13:20;;;;;;;3.90;1.53;;;;;;;-145.18;100.00;47097.97;5082163;28;20032;-59
2023/06/26 09:15:46;;;;;;;5.30;1.37;;;;;;;-145.18;100.00;47092.09;5068945;28;20463;-59
2023/06/26 09:18:12;;;;;;;5.90;1.50;;;;;;;-145.18;100.00;47070.63;5081468;28;20037;-58
2023/06/26 09:20:37;;;;;;;2.47;1.47;;;;;;;-145.18;100.00;47135.09;5075972;28;20032;-59
2023/06/26 09:23:04;;;;;;;2.80;1.20;;;;;;;-145.18;100.00;47070.63;5063833;28;20038;-59
2023/06/26 09:25:29;;;;;;;4.20;1.43;;;;;;;-145.18;100.00;47060.84;5085275;28;20483;-59
2023/06/26 09:27:55;;;;;;;4.70;1.47;;;;;;;-145.18;100.00;47107.72;5073791;28;20035;-58
2023/06/26 09:30:21;;;;;;;2.60;1.40;;;;;;;-145.18;100.00;47078.44;5061333;28;20056;-59
2023/06/26 09:32:47;;;;;;;1.83;1.30;;;;;;;-145.18;100.00;47105.78;5076956;28;20055;-58
2023/06/26 09:35:12;;;;;;;8.73;1.53;;;;;;;-145.18;100.00;47058.91;5059400;28;20091;-58
2023/06/26 09:37:38;;;;;;;3.87;1.50;;;;;;;-145.18;100.00;47047.19;5089241;28;20064;-59
2023/06/26 09:40:07;;;;;;;4.67;1.50;;;;;;;-145.18;100.00;47053.03;5077246;28;20391;-58
2023/06/26 09:42:33;;;;;;;3.30;1.23;;;;;;;-145.18;100.00;47078.44;5073999;28;20090;-59
2023/06/26 09:44:58;;;;;;;4.00;1.30;;;;;;;-145.18;100.00;47068.66;5074069;28;20036;-58
2023/06/26 09:47:23;;;;;;;11.00;1.77;;;;;;;-145.18;100.00;47029.59;5074013;28;20040;-58
2023/06/26 09:49:50;;;;;;;5.03;1.50;;;;;;;-145.18;100.00;47023.72;5074282;28;20036;-58
2023/06/26 09:52:19;;;;;;;3.13;1.23;;;;;;;-145.18;100.00;47025.69;5074553;28;20079;-59
2023/06/26 09:54:45;;;;;;;3.23;1.40;;;;;;;-145.18;100.00;47039.34;5073532;28;20369;-58
2023/06/26 09:57:18;;;;;;;3.43;1.30;;;;;;;-145.18;100.00;47033.50;5074209;28;20036;-58
2023/06/26 09:59:45;;;;;;;8.23;1.77;;;;;;;-145.18;100.00;47025.69;5074058;28;20027;-58
2023/06/26 10:02:11;;;;;;;5.80;1.30;;;;;;;-145.18;100.00;47021.78;5073318;28;20022;-59
2023/06/26 10:04:37;;;;;;;2.00;1.20;;;;;;;-145.18;100.00;47031.53;5073610;28;20516;-57
2023/06/26 10:07:06;;;;;;;4.17;1.53;;;;;;;-145.18;100.00;47025.69;5073237;28;20032;-58
2023/06/26 10:09:32;;;;;;;2.97;1.20;;;;;;;-145.18;100.00;47035.44;5080544;28;20027;-58
2023/06/26 10:12:10;;;;;;;5.30;1.60;;;;;;;-145.18;100.00;47049.13;5079357;28;20156;-58
2023/06/26 10:14:39;;;;;;;1.53;1.10;;;;;;;-145.18;100.00;47015.91;5081093;28;20401;-59
2023/06/26 10:17:13;;;;;;;4.83;1.53;;;;;;;-145.18;100.00;47012.00;5076544;28;20024;-59
2023/06/26 10:19:41;;;;;;;5.33;1.10;;;;;;;-145.18;100.00;47027.63;5089860;28;20040;-58
2023/06/26 10:22:07;;;;;;;2.47;1.57;;;;;;;-145.18;100.00;47031.53;5056382;28;20085;-58
2023/06/26 10:24:35;;;;;;;3.17;1.47;;;;;;;-145.18;100.00;47031.53;5077484;28;20044;-58
2023/06/26 10:27:21;;;;;;;6.43;1.30;;;;;;;-145.18;100.00;47010.06;5086051;28;20034;-59
2023/06/26 10:29:53;;;;;;;3.70;1.30;;;;;;;-145.18;100.00;47004.19;5074570;28;20064;-59
2023/06/26 10:32:21;;;;;;;4.97;1.33;;;;;;;-145.18;100.00;46990.53;5076168;28;20029;-58
2023/06/26 10:34:47;;;;;;;2.90;1.60;;;;;;;-145.18;100.00;47037.41;5079453;28;20042;-58
2023/06/26 10:37:12;;;;;;;3.20;1.57;;;;;;;-145.18;100.00;47008.09;5081777;28;20510;-59
2023/06/26 10:39:49;;;;;;;6.00;1.60;;;;;;;-145.18;100.00;47004.19;5087078;28;20053;-58
2023/06/26 10:42:19;;;;;;;4.07;1.07;;;;;;;-145.18;100.00;47000.28;5077993;28;20078;-59
2023/06/26 10:44:46;;;;;;;3.17;1.30;;;;;;;-145.18;100.00;46984.66;5081849;28;20025;-59
2023/06/26 10:47:32;;;;;;;6.93;1.57;;;;;;;-145.18;100.00;46972.94;5073118;28;20032;-58
2023/06/26 10:50:35;;;;;;;3.03;1.23;;;;;;;-145.18;100.00;46971.00;5070597;28;20079;-58
2023/06/26 10:53:21;;;;;;;4.60;1.53;;;;;;;-145.18;100.00;46971.00;5066578;28;20028;-59
2023/06/26 10:55:58;;;;;;;5.97;1.25;;;;;;;-145.18;100.00;46967.09;5072259;28;20042;-59
2023/06/26 10:58:34;;;;;;;3.33;1.40;;;;;;;-145.18;100.00;46980.75;5065693;28;20050;-59
2023/06/26 11:01:14;;;;;;;;;;;;;;;-145.18;100.00;46988.56;5072853;28;20025;-58
2023/06/26 11:04:03;;;;;;;2.57;1.20;;;;;;;-145.18;100.00;46998.34;5072409;28;20022;-58
2023/06/26 11:06:29;;;;;;;4.50;1.47;;;;;;;-145.18;100.00;46988.56;5072647;28;20099;-58